sensor_id;sensor_type;location;lat;lon;timestamp;P1;durP1;ratioP1;P2;durP2;ratioP2
61015;SDS011;46902;52.920;6.536;2022-10-31T00:01:59;17.98;;;10.25;;
61015;SDS011;46902;52.920;6.536;2022-10-31T00:04:25;18.17;;;11.05;;
61015;SDS011;46902;52.920;6.536;2022-10-31T00:06:51;18.20;;;10.18;;
61015;SDS011;46902;52.920;6.536;2022-10-31T00:09:16;18.25;;;10.63;;
61015;SDS011;46902;52.920;6.536;2022-10-31T00:11:42;18.70;;;11.38;;
61015;SDS011;46902;52.920;6.536;2022-10-31T00:14:07;28.38;;;12.88;;
61015;SDS011;46902;52.920;6.536;2022-10-31T00:16:33;18.63;;;11.68;;
61015;SDS011;46902;52.920;6.536;2022-10-31T00:19:00;22.20;;;14.02;;
61015;SDS011;46902;52.920;6.536;2022-10-31T00:21:28;26.20;;;13.35;;
61015;SDS011;46902;52.920;6.536;2022-10-31T00:23:54;20.88;;;13.32;;
61015;SDS011;46902;52.920;6.536;2022-10-31T00:26:20;19.50;;;12.45;;
61015;SDS011;46902;52.920;6.536;2022-10-31T00:28:46;21.17;;;13.25;;
61015;SDS011;46902;52.920;6.536;2022-10-31T00:31:12;23.58;;;14.13;;
61015;SDS011;46902;52.920;6.536;2022-10-31T00:33:39;24.10;;;15.63;;
61015;SDS011;46902;52.920;6.536;2022-10-31T00:36:05;23.83;;;13.88;;
61015;SDS011;46902;52.920;6.536;2022-10-31T00:38:32;23.52;;;13.75;;
61015;SDS011;46902;52.920;6.536;2022-10-31T00:40:58;23.23;;;14.23;;
61015;SDS011;46902;52.920;6.536;2022-10-31T00:43:24;27.65;;;13.27;;
61015;SDS011;46902;52.920;6.536;2022-10-31T00:45:49;24.70;;;14.30;;
61015;SDS011;46902;52.920;6.536;2022-10-31T00:48:15;21.40;;;14.13;;
61015;SDS011;46902;52.920;6.536;2022-10-31T00:50:41;23.35;;;13.77;;
61015;SDS011;46902;52.920;6.536;2022-10-31T00:53:06;26.25;;;14.93;;
61015;SDS011;46902;52.920;6.536;2022-10-31T00:55:32;21.70;;;14.38;;
61015;SDS011;46902;52.920;6.536;2022-10-31T00:57:58;22.23;;;13.73;;
61015;SDS011;46902;52.920;6.536;2022-10-31T01:00:23;23.33;;;14.05;;
61015;SDS011;46902;52.920;6.536;2022-10-31T01:02:49;24.73;;;14.55;;
61015;SDS011;46902;52.920;6.536;2022-10-31T01:05:15;22.02;;;14.02;;
61015;SDS011;46902;52.920;6.536;2022-10-31T01:07:41;22.30;;;12.52;;
61015;SDS011;46902;52.920;6.536;2022-10-31T01:10:06;16.38;;;12.55;;
61015;SDS011;46902;52.920;6.536;2022-10-31T01:12:41;21.98;;;13.27;;
61015;SDS011;46902;52.920;6.536;2022-10-31T01:15:08;26.80;;;14.55;;
61015;SDS011;46902;52.920;6.536;2022-10-31T01:17:36;22.30;;;12.63;;
61015;SDS011;46902;52.920;6.536;2022-10-31T01:20:02;18.58;;;12.55;;
61015;SDS011;46902;52.920;6.536;2022-10-31T01:22:28;23.38;;;12.85;;
61015;SDS011;46902;52.920;6.536;2022-10-31T01:24:54;21.77;;;13.18;;
61015;SDS011;46902;52.920;6.536;2022-10-31T01:27:19;22.65;;;13.73;;
61015;SDS011;46902;52.920;6.536;2022-10-31T01:29:45;21.48;;;13.60;;
61015;SDS011;46902;52.920;6.536;2022-10-31T01:32:10;19.48;;;12.77;;
61015;SDS011;46902;52.920;6.536;2022-10-31T01:34:36;23.77;;;13.75;;
61015;SDS011;46902;52.920;6.536;2022-10-31T01:37:01;21.65;;;12.57;;
61015;SDS011;46902;52.920;6.536;2022-10-31T01:39:27;22.15;;;13.50;;
61015;SDS011;46902;52.920;6.536;2022-10-31T01:41:53;21.00;;;13.43;;
61015;SDS011;46902;52.920;6.536;2022-10-31T01:49:33;25.98;;;13.77;;
61015;SDS011;46902;52.920;6.536;2022-10-31T01:52:24;20.05;;;13.50;;
61015;SDS011;46902;52.920;6.536;2022-10-31T01:54:58;22.35;;;14.00;;
61015;SDS011;46902;52.920;6.536;2022-10-31T01:57:46;23.52;;;13.20;;
61015;SDS011;46902;52.920;6.536;2022-10-31T02:00:14;17.83;;;13.10;;
61015;SDS011;46902;52.920;6.536;2022-10-31T02:02:41;23.83;;;13.82;;
61015;SDS011;46902;52.920;6.536;2022-10-31T02:05:08;24.42;;;15.40;;
61015;SDS011;46902;52.920;6.536;2022-10-31T02:07:39;23.55;;;13.90;;
61015;SDS011;46902;52.920;6.536;2022-10-31T02:10:09;21.40;;;13.30;;
61015;SDS011;46902;52.920;6.536;2022-10-31T02:12:35;20.65;;;13.27;;
61015;SDS011;46902;52.920;6.536;2022-10-31T02:15:03;21.70;;;14.07;;
61015;SDS011;46902;52.920;6.536;2022-10-31T02:17:29;22.08;;;15.93;;
61015;SDS011;46902;52.920;6.536;2022-10-31T02:19:59;21.65;;;13.15;;
61015;SDS011;46902;52.920;6.536;2022-10-31T02:31:22;20.80;;;14.68;;
61015;SDS011;46902;52.920;6.536;2022-10-31T02:33:58;20.05;;;15.43;;
61015;SDS011;46902;52.920;6.536;2022-10-31T02:39:11;18.60;;;13.05;;
61015;SDS011;46902;52.920;6.536;2022-10-31T02:47:27;17.80;;;12.55;;
61015;SDS011;46902;52.920;6.536;2022-10-31T02:49:59;18.67;;;12.32;;
61015;SDS011;46902;52.920;6.536;2022-10-31T02:52:28;18.65;;;11.90;;
61015;SDS011;46902;52.920;6.536;2022-10-31T02:54:55;16.52;;;12.45;;
61015;SDS011;46902;52.920;6.536;2022-10-31T02:57:23;19.75;;;12.75;;
61015;SDS011;46902;52.920;6.536;2022-10-31T03:00:03;17.85;;;11.98;;
61015;SDS011;46902;52.920;6.536;2022-10-31T03:06:09;16.92;;;11.43;;
61015;SDS011;46902;52.920;6.536;2022-10-31T03:08:42;15.38;;;11.05;;
61015;SDS011;46902;52.920;6.536;2022-10-31T03:11:20;14.82;;;10.70;;
61015;SDS011;46902;52.920;6.536;2022-10-31T03:16:37;16.08;;;11.50;;
61015;SDS011;46902;52.920;6.536;2022-10-31T03:19:12;19.25;;;12.18;;
61015;SDS011;46902;52.920;6.536;2022-10-31T03:21:46;17.20;;;11.75;;
61015;SDS011;46902;52.920;6.536;2022-10-31T03:24:14;19.02;;;12.20;;
61015;SDS011;46902;52.920;6.536;2022-10-31T03:26:41;18.42;;;11.15;;
61015;SDS011;46902;52.920;6.536;2022-10-31T03:29:11;16.52;;;11.10;;
61015;SDS011;46902;52.920;6.536;2022-10-31T03:31:42;15.45;;;11.02;;
61015;SDS011;46902;52.920;6.536;2022-10-31T03:34:17;14.45;;;11.52;;
61015;SDS011;46902;52.920;6.536;2022-10-31T03:36:45;18.17;;;11.57;;
61015;SDS011;46902;52.920;6.536;2022-10-31T03:39:14;21.15;;;12.00;;
61015;SDS011;46902;52.920;6.536;2022-10-31T03:41:43;17.95;;;11.40;;
61015;SDS011;46902;52.920;6.536;2022-10-31T03:44:12;15.90;;;11.73;;
61015;SDS011;46902;52.920;6.536;2022-10-31T03:46:41;17.02;;;11.65;;
61015;SDS011;46902;52.920;6.536;2022-10-31T03:49:08;16.85;;;10.25;;
61015;SDS011;46902;52.920;6.536;2022-10-31T03:54:19;15.15;;;10.30;;
61015;SDS011;46902;52.920;6.536;2022-10-31T03:56:53;18.58;;;11.70;;
61015;SDS011;46902;52.920;6.536;2022-10-31T03:59:26;17.75;;;11.55;;
61015;SDS011;46902;52.920;6.536;2022-10-31T04:02:00;12.48;;;10.18;;
61015;SDS011;46902;52.920;6.536;2022-10-31T04:04:28;14.63;;;10.48;;
61015;SDS011;46902;52.920;6.536;2022-10-31T04:06:55;14.57;;;10.00;;
61015;SDS011;46902;52.920;6.536;2022-10-31T04:09:24;15.82;;;11.00;;
61015;SDS011;46902;52.920;6.536;2022-10-31T04:11:53;14.05;;;10.38;;
61015;SDS011;46902;52.920;6.536;2022-10-31T04:14:20;14.98;;;10.80;;
61015;SDS011;46902;52.920;6.536;2022-10-31T04:16:49;16.17;;;11.23;;
61015;SDS011;46902;52.920;6.536;2022-10-31T04:19:14;14.55;;;10.20;;
61015;SDS011;46902;52.920;6.536;2022-10-31T04:21:40;15.43;;;10.80;;
61015;SDS011;46902;52.920;6.536;2022-10-31T04:24:08;13.43;;;11.20;;
61015;SDS011;46902;52.920;6.536;2022-10-31T04:26:34;16.52;;;12.43;;
61015;SDS011;46902;52.920;6.536;2022-10-31T04:29:00;17.95;;;11.90;;
61015;SDS011;46902;52.920;6.536;2022-10-31T04:31:25;16.50;;;11.65;;
61015;SDS011;46902;52.920;6.536;2022-10-31T04:33:51;16.45;;;11.10;;
61015;SDS011;46902;52.920;6.536;2022-10-31T04:36:17;17.00;;;11.77;;
61015;SDS011;46902;52.920;6.536;2022-10-31T04:38:43;16.85;;;11.38;;
61015;SDS011;46902;52.920;6.536;2022-10-31T04:41:08;17.00;;;12.27;;
61015;SDS011;46902;52.920;6.536;2022-10-31T04:43:34;17.80;;;12.32;;
61015;SDS011;46902;52.920;6.536;2022-10-31T04:45:59;17.67;;;11.75;;
61015;SDS011;46902;52.920;6.536;2022-10-31T04:48:25;15.32;;;11.55;;
61015;SDS011;46902;52.920;6.536;2022-10-31T04:50:51;14.43;;;10.95;;
61015;SDS011;46902;52.920;6.536;2022-10-31T04:53:16;18.13;;;11.88;;
61015;SDS011;46902;52.920;6.536;2022-10-31T04:55:42;16.17;;;10.73;;
61015;SDS011;46902;52.920;6.536;2022-10-31T04:58:07;18.63;;;12.07;;
61015;SDS011;46902;52.920;6.536;2022-10-31T05:00:33;17.05;;;11.60;;
61015;SDS011;46902;52.920;6.536;2022-10-31T05:02:59;15.18;;;11.55;;
61015;SDS011;46902;52.920;6.536;2022-10-31T05:05:27;12.73;;;9.05;;
61015;SDS011;46902;52.920;6.536;2022-10-31T05:07:54;13.77;;;9.20;;
61015;SDS011;46902;52.920;6.536;2022-10-31T05:10:21;11.10;;;8.98;;
61015;SDS011;46902;52.920;6.536;2022-10-31T05:12:50;15.45;;;10.10;;
61015;SDS011;46902;52.920;6.536;2022-10-31T05:15:19;13.52;;;8.88;;
61015;SDS011;46902;52.920;6.536;2022-10-31T05:17:46;13.93;;;8.00;;
61015;SDS011;46902;52.920;6.536;2022-10-31T05:20:12;15.13;;;9.50;;
61015;SDS011;46902;52.920;6.536;2022-10-31T05:22:49;13.55;;;10.50;;
61015;SDS011;46902;52.920;6.536;2022-10-31T05:25:16;15.27;;;10.35;;
61015;SDS011;46902;52.920;6.536;2022-10-31T05:27:44;15.57;;;11.55;;
61015;SDS011;46902;52.920;6.536;2022-10-31T05:30:12;18.90;;;12.88;;
61015;SDS011;46902;52.920;6.536;2022-10-31T05:32:42;18.30;;;11.75;;
61015;SDS011;46902;52.920;6.536;2022-10-31T05:35:10;16.15;;;12.32;;
61015;SDS011;46902;52.920;6.536;2022-10-31T05:37:37;15.25;;;11.85;;
61015;SDS011;46902;52.920;6.536;2022-10-31T05:40:03;15.85;;;11.80;;
61015;SDS011;46902;52.920;6.536;2022-10-31T05:42:31;17.75;;;11.75;;
61015;SDS011;46902;52.920;6.536;2022-10-31T05:44:56;19.55;;;12.07;;
61015;SDS011;46902;52.920;6.536;2022-10-31T05:47:22;13.10;;;10.80;;
61015;SDS011;46902;52.920;6.536;2022-10-31T05:49:48;14.52;;;10.73;;
61015;SDS011;46902;52.920;6.536;2022-10-31T05:52:13;14.30;;;11.75;;
61015;SDS011;46902;52.920;6.536;2022-10-31T05:54:39;15.60;;;10.13;;
61015;SDS011;46902;52.920;6.536;2022-10-31T05:57:05;18.10;;;11.77;;
61015;SDS011;46902;52.920;6.536;2022-10-31T05:59:30;17.65;;;12.18;;
61015;SDS011;46902;52.920;6.536;2022-10-31T06:01:56;15.57;;;11.52;;
61015;SDS011;46902;52.920;6.536;2022-10-31T06:04:22;15.63;;;12.15;;
61015;SDS011;46902;52.920;6.536;2022-10-31T06:06:48;17.38;;;12.43;;
61015;SDS011;46902;52.920;6.536;2022-10-31T06:09:13;16.05;;;11.90;;
61015;SDS011;46902;52.920;6.536;2022-10-31T06:11:39;14.27;;;11.45;;
61015;SDS011;46902;52.920;6.536;2022-10-31T06:14:04;15.80;;;10.95;;
61015;SDS011;46902;52.920;6.536;2022-10-31T06:16:30;18.92;;;11.88;;
61015;SDS011;46902;52.920;6.536;2022-10-31T06:18:56;15.60;;;11.32;;
61015;SDS011;46902;52.920;6.536;2022-10-31T06:21:21;14.90;;;10.15;;
61015;SDS011;46902;52.920;6.536;2022-10-31T06:23:47;11.52;;;9.18;;
61015;SDS011;46902;52.920;6.536;2022-10-31T06:26:13;11.65;;;8.13;;
61015;SDS011;46902;52.920;6.536;2022-10-31T06:28:38;14.70;;;9.25;;
61015;SDS011;46902;52.920;6.536;2022-10-31T06:31:04;11.40;;;8.90;;
61015;SDS011;46902;52.920;6.536;2022-10-31T06:33:29;15.27;;;9.27;;
61015;SDS011;46902;52.920;6.536;2022-10-31T06:35:55;12.52;;;10.32;;
61015;SDS011;46902;52.920;6.536;2022-10-31T06:38:21;12.77;;;10.25;;
61015;SDS011;46902;52.920;6.536;2022-10-31T06:40:46;14.30;;;11.35;;
61015;SDS011;46902;52.920;6.536;2022-10-31T06:43:12;13.60;;;10.40;;
61015;SDS011;46902;52.920;6.536;2022-10-31T06:45:39;14.18;;;10.23;;
61015;SDS011;46902;52.920;6.536;2022-10-31T06:48:05;11.77;;;9.60;;
61015;SDS011;46902;52.920;6.536;2022-10-31T06:50:31;13.93;;;9.25;;
61015;SDS011;46902;52.920;6.536;2022-10-31T06:52:57;16.75;;;10.77;;
61015;SDS011;46902;52.920;6.536;2022-10-31T06:55:23;16.20;;;10.77;;
61015;SDS011;46902;52.920;6.536;2022-10-31T06:57:50;13.05;;;11.05;;
61015;SDS011;46902;52.920;6.536;2022-10-31T07:00:16;16.38;;;10.32;;
61015;SDS011;46902;52.920;6.536;2022-10-31T07:02:42;13.95;;;10.68;;
61015;SDS011;46902;52.920;6.536;2022-10-31T07:05:07;14.85;;;11.32;;
61015;SDS011;46902;52.920;6.536;2022-10-31T07:07:33;12.23;;;10.32;;
61015;SDS011;46902;52.920;6.536;2022-10-31T07:09:58;12.52;;;10.13;;
61015;SDS011;46902;52.920;6.536;2022-10-31T07:12:24;15.10;;;11.75;;
61015;SDS011;46902;52.920;6.536;2022-10-31T07:14:49;12.40;;;10.15;;
61015;SDS011;46902;52.920;6.536;2022-10-31T07:17:15;13.55;;;11.13;;
61015;SDS011;46902;52.920;6.536;2022-10-31T07:19:40;12.15;;;10.18;;
61015;SDS011;46902;52.920;6.536;2022-10-31T07:22:06;12.05;;;10.07;;
61015;SDS011;46902;52.920;6.536;2022-10-31T07:24:32;15.30;;;10.00;;
61015;SDS011;46902;52.920;6.536;2022-10-31T07:26:57;14.10;;;11.45;;
61015;SDS011;46902;52.920;6.536;2022-10-31T07:29:23;16.13;;;11.70;;
61015;SDS011;46902;52.920;6.536;2022-10-31T07:31:48;14.20;;;11.98;;
61015;SDS011;46902;52.920;6.536;2022-10-31T07:34:14;13.07;;;10.80;;
61015;SDS011;46902;52.920;6.536;2022-10-31T07:36:39;13.07;;;11.00;;
61015;SDS011;46902;52.920;6.536;2022-10-31T07:39:05;12.93;;;11.25;;
61015;SDS011;46902;52.920;6.536;2022-10-31T07:41:30;16.58;;;11.02;;
61015;SDS011;46902;52.920;6.536;2022-10-31T07:43:56;13.50;;;11.48;;
61015;SDS011;46902;52.920;6.536;2022-10-31T07:46:21;15.32;;;12.15;;
61015;SDS011;46902;52.920;6.536;2022-10-31T07:48:47;17.90;;;11.73;;
61015;SDS011;46902;52.920;6.536;2022-10-31T07:51:13;16.13;;;12.23;;
61015;SDS011;46902;52.920;6.536;2022-10-31T07:53:38;15.30;;;11.30;;
61015;SDS011;46902;52.920;6.536;2022-10-31T07:56:04;14.07;;;12.10;;
61015;SDS011;46902;52.920;6.536;2022-10-31T07:58:29;15.60;;;12.10;;
61015;SDS011;46902;52.920;6.536;2022-10-31T08:00:55;14.20;;;12.20;;
61015;SDS011;46902;52.920;6.536;2022-10-31T08:03:22;17.63;;;13.70;;
61015;SDS011;46902;52.920;6.536;2022-10-31T08:05:48;17.08;;;13.25;;
61015;SDS011;46902;52.920;6.536;2022-10-31T08:08:14;19.15;;;12.60;;
61015;SDS011;46902;52.920;6.536;2022-10-31T08:10:40;20.80;;;13.18;;
61015;SDS011;46902;52.920;6.536;2022-10-31T08:13:06;17.05;;;12.40;;
61015;SDS011;46902;52.920;6.536;2022-10-31T08:15:36;13.32;;;11.85;;
61015;SDS011;46902;52.920;6.536;2022-10-31T08:18:12;16.55;;;12.32;;
61015;SDS011;46902;52.920;6.536;2022-10-31T08:20:39;15.43;;;12.43;;
61015;SDS011;46902;52.920;6.536;2022-10-31T08:23:05;15.45;;;11.75;;
61015;SDS011;46902;52.920;6.536;2022-10-31T08:25:31;17.80;;;13.48;;
61015;SDS011;46902;52.920;6.536;2022-10-31T08:27:58;14.18;;;11.15;;
61015;SDS011;46902;52.920;6.536;2022-10-31T08:30:25;16.50;;;12.60;;
61015;SDS011;46902;52.920;6.536;2022-10-31T08:35:27;17.55;;;13.93;;
61015;SDS011;46902;52.920;6.536;2022-10-31T08:37:53;21.35;;;15.00;;
61015;SDS011;46902;52.920;6.536;2022-10-31T08:40:20;19.88;;;15.00;;
61015;SDS011;46902;52.920;6.536;2022-10-31T08:42:45;21.02;;;16.15;;
61015;SDS011;46902;52.920;6.536;2022-10-31T08:45:11;21.58;;;16.58;;
61015;SDS011;46902;52.920;6.536;2022-10-31T08:47:37;19.75;;;16.02;;
61015;SDS011;46902;52.920;6.536;2022-10-31T08:50:03;20.88;;;16.05;;
61015;SDS011;46902;52.920;6.536;2022-10-31T08:52:29;20.38;;;15.50;;
61015;SDS011;46902;52.920;6.536;2022-10-31T08:54:54;16.70;;;14.75;;
61015;SDS011;46902;52.920;6.536;2022-10-31T08:57:20;18.30;;;15.35;;
61015;SDS011;46902;52.920;6.536;2022-10-31T08:59:45;19.23;;;15.13;;
61015;SDS011;46902;52.920;6.536;2022-10-31T09:02:11;20.45;;;16.60;;
61015;SDS011;46902;52.920;6.536;2022-10-31T09:04:37;19.80;;;16.27;;
61015;SDS011;46902;52.920;6.536;2022-10-31T09:07:02;21.45;;;16.13;;
61015;SDS011;46902;52.920;6.536;2022-10-31T09:09:28;24.20;;;17.77;;
61015;SDS011;46902;52.920;6.536;2022-10-31T09:11:53;23.83;;;19.02;;
61015;SDS011;46902;52.920;6.536;2022-10-31T09:14:19;22.05;;;17.13;;
61015;SDS011;46902;52.920;6.536;2022-10-31T09:16:44;22.30;;;16.27;;
61015;SDS011;46902;52.920;6.536;2022-10-31T09:19:10;24.88;;;19.13;;
61015;SDS011;46902;52.920;6.536;2022-10-31T09:21:35;27.48;;;19.98;;
61015;SDS011;46902;52.920;6.536;2022-10-31T09:24:01;22.05;;;18.85;;
61015;SDS011;46902;52.920;6.536;2022-10-31T09:26:26;26.45;;;20.30;;
61015;SDS011;46902;52.920;6.536;2022-10-31T09:28:52;27.83;;;19.95;;
61015;SDS011;46902;52.920;6.536;2022-10-31T09:31:17;24.20;;;19.05;;
61015;SDS011;46902;52.920;6.536;2022-10-31T09:33:43;23.35;;;18.92;;
61015;SDS011;46902;52.920;6.536;2022-10-31T09:36:08;23.58;;;19.30;;
61015;SDS011;46902;52.920;6.536;2022-10-31T09:38:34;26.10;;;19.42;;
61015;SDS011;46902;52.920;6.536;2022-10-31T09:41:08;29.00;;;20.77;;
61015;SDS011;46902;52.920;6.536;2022-10-31T09:47:03;22.83;;;19.10;;
61015;SDS011;46902;52.920;6.536;2022-10-31T09:49:54;26.30;;;22.00;;
61015;SDS011;46902;52.920;6.536;2022-10-31T09:52:32;28.38;;;20.73;;
61015;SDS011;46902;52.920;6.536;2022-10-31T09:57:49;27.17;;;20.58;;
61015;SDS011;46902;52.920;6.536;2022-10-31T10:00:16;28.15;;;21.35;;
61015;SDS011;46902;52.920;6.536;2022-10-31T10:02:46;29.13;;;21.85;;
61015;SDS011;46902;52.920;6.536;2022-10-31T10:05:14;26.10;;;20.63;;
61015;SDS011;46902;52.920;6.536;2022-10-31T10:13:11;28.73;;;21.52;;
61015;SDS011;46902;52.920;6.536;2022-10-31T10:16:00;26.55;;;20.00;;
61015;SDS011;46902;52.920;6.536;2022-10-31T10:26:43;25.13;;;18.77;;
61015;SDS011;46902;52.920;6.536;2022-10-31T10:29:35;21.13;;;18.52;;
61015;SDS011;46902;52.920;6.536;2022-10-31T10:32:09;20.00;;;17.63;;
61015;SDS011;46902;52.920;6.536;2022-10-31T10:34:43;24.80;;;18.63;;
61015;SDS011;46902;52.920;6.536;2022-10-31T10:39:54;21.25;;;17.08;;
61015;SDS011;46902;52.920;6.536;2022-10-31T10:42:32;22.05;;;16.67;;
61015;SDS011;46902;52.920;6.536;2022-10-31T10:45:19;22.40;;;16.58;;
61015;SDS011;46902;52.920;6.536;2022-10-31T10:48:10;21.52;;;15.27;;
61015;SDS011;46902;52.920;6.536;2022-10-31T10:50:40;19.92;;;15.27;;
61015;SDS011;46902;52.920;6.536;2022-10-31T10:53:37;17.95;;;14.32;;
61015;SDS011;46902;52.920;6.536;2022-10-31T10:56:33;16.50;;;12.55;;
61015;SDS011;46902;52.920;6.536;2022-10-31T10:59:08;19.65;;;13.40;;
61015;SDS011;46902;52.920;6.536;2022-10-31T11:01:38;15.75;;;12.02;;
61015;SDS011;46902;52.920;6.536;2022-10-31T11:04:08;17.73;;;13.05;;
61015;SDS011;46902;52.920;6.536;2022-10-31T11:07:05;14.48;;;11.27;;
61015;SDS011;46902;52.920;6.536;2022-10-31T11:09:35;14.40;;;10.80;;
61015;SDS011;46902;52.920;6.536;2022-10-31T11:12:07;12.20;;;9.95;;
61015;SDS011;46902;52.920;6.536;2022-10-31T11:14:57;13.95;;;10.55;;
61015;SDS011;46902;52.920;6.536;2022-10-31T11:20:44;13.40;;;9.25;;
61015;SDS011;46902;52.920;6.536;2022-10-31T11:22:45;14.15;;;9.25;;
61015;SDS011;46902;52.920;6.536;2022-10-31T11:27:44;11.18;;;8.60;;
61015;SDS011;46902;52.920;6.536;2022-10-31T11:30:23;14.40;;;8.30;;
61015;SDS011;46902;52.920;6.536;2022-10-31T11:32:49;11.73;;;7.75;;
61015;SDS011;46902;52.920;6.536;2022-10-31T11:35:19;12.82;;;7.97;;
61015;SDS011;46902;52.920;6.536;2022-10-31T11:37:48;13.75;;;7.47;;
61015;SDS011;46902;52.920;6.536;2022-10-31T11:42:44;12.25;;;7.28;;
61015;SDS011;46902;52.920;6.536;2022-10-31T11:47:49;11.77;;;7.70;;
61015;SDS011;46902;52.920;6.536;2022-10-31T11:50:19;11.48;;;7.15;;
61015;SDS011;46902;52.920;6.536;2022-10-31T11:52:48;12.75;;;8.25;;
61015;SDS011;46902;52.920;6.536;2022-10-31T11:55:16;12.88;;;8.35;;
61015;SDS011;46902;52.920;6.536;2022-10-31T11:57:58;13.32;;;8.30;;
61015;SDS011;46902;52.920;6.536;2022-10-31T12:00:25;14.32;;;8.57;;
61015;SDS011;46902;52.920;6.536;2022-10-31T12:03:14;11.70;;;8.63;;
61015;SDS011;46902;52.920;6.536;2022-10-31T12:08:31;13.35;;;8.75;;
61015;SDS011;46902;52.920;6.536;2022-10-31T12:11:11;12.20;;;8.37;;
61015;SDS011;46902;52.920;6.536;2022-10-31T12:19:36;17.05;;;8.40;;
61015;SDS011;46902;52.920;6.536;2022-10-31T12:30:52;13.30;;;6.45;;
61015;SDS011;46902;52.920;6.536;2022-10-31T12:44:06;11.80;;;4.40;;
61015;SDS011;46902;52.920;6.536;2022-10-31T12:52:39;8.52;;;3.80;;
61015;SDS011;46902;52.920;6.536;2022-10-31T12:55:27;14.07;;;4.78;;
61015;SDS011;46902;52.920;6.536;2022-10-31T12:58:16;11.73;;;5.00;;
61015;SDS011;46902;52.920;6.536;2022-10-31T13:00:47;14.13;;;4.85;;
61015;SDS011;46902;52.920;6.536;2022-10-31T13:03:24;10.52;;;4.70;;
61015;SDS011;46902;52.920;6.536;2022-10-31T13:05:55;15.23;;;5.25;;
61015;SDS011;46902;52.920;6.536;2022-10-31T13:08:35;13.32;;;5.32;;
61015;SDS011;46902;52.920;6.536;2022-10-31T13:11:19;11.05;;;5.65;;
61015;SDS011;46902;52.920;6.536;2022-10-31T13:13:56;11.52;;;5.18;;
61015;SDS011;46902;52.920;6.536;2022-10-31T13:16:33;12.00;;;5.07;;
61015;SDS011;46902;52.920;6.536;2022-10-31T13:19:03;11.75;;;5.68;;
61015;SDS011;46902;52.920;6.536;2022-10-31T13:21:45;12.98;;;5.50;;
61015;SDS011;46902;52.920;6.536;2022-10-31T13:27:22;9.65;;;4.07;;
61015;SDS011;46902;52.920;6.536;2022-10-31T13:32:19;16.40;;;4.72;;
61015;SDS011;46902;52.920;6.536;2022-10-31T13:34:51;14.73;;;4.90;;
61015;SDS011;46902;52.920;6.536;2022-10-31T13:45:57;6.13;;;2.60;;
61015;SDS011;46902;52.920;6.536;2022-10-31T13:51:12;7.60;;;2.80;;
61015;SDS011;46902;52.920;6.536;2022-10-31T13:56:24;7.20;;;3.42;;
61015;SDS011;46902;52.920;6.536;2022-10-31T13:58:56;6.85;;;3.33;;
61015;SDS011;46902;52.920;6.536;2022-10-31T14:01:28;7.07;;;4.10;;
61015;SDS011;46902;52.920;6.536;2022-10-31T14:03:56;8.40;;;4.15;;
61015;SDS011;46902;52.920;6.536;2022-10-31T14:09:28;7.43;;;3.90;;
61015;SDS011;46902;52.920;6.536;2022-10-31T14:11:57;10.23;;;4.68;;
61015;SDS011;46902;52.920;6.536;2022-10-31T14:14:29;7.55;;;4.10;;
61015;SDS011;46902;52.920;6.536;2022-10-31T14:16:58;6.65;;;3.20;;
61015;SDS011;46902;52.920;6.536;2022-10-31T14:19:24;11.27;;;4.03;;
61015;SDS011;46902;52.920;6.536;2022-10-31T14:21:51;8.07;;;3.72;;
61015;SDS011;46902;52.920;6.536;2022-10-31T14:26:58;10.32;;;3.83;;
61015;SDS011;46902;52.920;6.536;2022-10-31T14:29:26;10.93;;;3.90;;
61015;SDS011;46902;52.920;6.536;2022-10-31T14:31:54;8.27;;;4.20;;
61015;SDS011;46902;52.920;6.536;2022-10-31T14:40:06;9.70;;;4.50;;
61015;SDS011;46902;52.920;6.536;2022-10-31T14:42:55;9.10;;;4.28;;
61015;SDS011;46902;52.920;6.536;2022-10-31T14:45:43;10.27;;;5.30;;
61015;SDS011;46902;52.920;6.536;2022-10-31T14:51:19;9.60;;;5.05;;
61015;SDS011;46902;52.920;6.536;2022-10-31T14:53:51;7.32;;;4.50;;
61015;SDS011;46902;52.920;6.536;2022-10-31T14:56:26;12.80;;;5.03;;
61015;SDS011;46902;52.920;6.536;2022-10-31T14:59:05;9.75;;;4.65;;
61015;SDS011;46902;52.920;6.536;2022-10-31T15:01:39;9.60;;;4.80;;
61015;SDS011;46902;52.920;6.536;2022-10-31T15:04:15;8.35;;;4.10;;
61015;SDS011;46902;52.920;6.536;2022-10-31T15:06:49;11.30;;;4.60;;
61015;SDS011;46902;52.920;6.536;2022-10-31T15:09:35;9.82;;;4.15;;
61015;SDS011;46902;52.920;6.536;2022-10-31T15:12:22;9.95;;;4.75;;
61015;SDS011;46902;52.920;6.536;2022-10-31T15:14:50;12.43;;;4.60;;
61015;SDS011;46902;52.920;6.536;2022-10-31T15:17:16;6.80;;;3.85;;
61015;SDS011;46902;52.920;6.536;2022-10-31T15:19:42;9.93;;;3.83;;
61015;SDS011;46902;52.920;6.536;2022-10-31T15:22:14;10.63;;;3.95;;
61015;SDS011;46902;52.920;6.536;2022-10-31T15:24:42;13.55;;;4.78;;
61015;SDS011;46902;52.920;6.536;2022-10-31T15:27:13;9.90;;;4.25;;
61015;SDS011;46902;52.920;6.536;2022-10-31T15:29:49;8.13;;;4.35;;
61015;SDS011;46902;52.920;6.536;2022-10-31T15:32:22;8.13;;;4.03;;
61015;SDS011;46902;52.920;6.536;2022-10-31T15:34:50;9.30;;;3.97;;
61015;SDS011;46902;52.920;6.536;2022-10-31T15:37:18;7.45;;;4.18;;
61015;SDS011;46902;52.920;6.536;2022-10-31T15:39:46;9.68;;;4.30;;
61015;SDS011;46902;52.920;6.536;2022-10-31T15:42:14;10.77;;;4.35;;
61015;SDS011;46902;52.920;6.536;2022-10-31T15:44:43;8.02;;;4.25;;
61015;SDS011;46902;52.920;6.536;2022-10-31T15:47:16;14.48;;;4.68;;
61015;SDS011;46902;52.920;6.536;2022-10-31T15:49:48;8.13;;;4.22;;
61015;SDS011;46902;52.920;6.536;2022-10-31T15:52:41;8.65;;;4.35;;
61015;SDS011;46902;52.920;6.536;2022-10-31T15:57:38;9.05;;;4.60;;
61015;SDS011;46902;52.920;6.536;2022-10-31T16:00:06;10.55;;;5.07;;
61015;SDS011;46902;52.920;6.536;2022-10-31T16:02:45;9.38;;;4.60;;
61015;SDS011;46902;52.920;6.536;2022-10-31T16:05:14;9.40;;;5.00;;
61015;SDS011;46902;52.920;6.536;2022-10-31T16:07:47;10.80;;;4.70;;
61015;SDS011;46902;52.920;6.536;2022-10-31T16:12:48;8.27;;;5.45;;
61015;SDS011;46902;52.920;6.536;2022-10-31T16:15:14;11.23;;;5.90;;
61015;SDS011;46902;52.920;6.536;2022-10-31T16:17:42;9.05;;;6.10;;
61015;SDS011;46902;52.920;6.536;2022-10-31T16:20:20;10.30;;;6.32;;
61015;SDS011;46902;52.920;6.536;2022-10-31T16:22:50;10.95;;;6.60;;
61015;SDS011;46902;52.920;6.536;2022-10-31T16:25:19;13.07;;;7.38;;
61015;SDS011;46902;52.920;6.536;2022-10-31T16:33:21;11.13;;;7.65;;
61015;SDS011;46902;52.920;6.536;2022-10-31T16:35:53;13.70;;;8.73;;
61015;SDS011;46902;52.920;6.536;2022-10-31T16:38:22;13.77;;;8.27;;
61015;SDS011;46902;52.920;6.536;2022-10-31T16:40:48;11.18;;;7.93;;
61015;SDS011;46902;52.920;6.536;2022-10-31T16:43:15;15.75;;;9.95;;
61015;SDS011;46902;52.920;6.536;2022-10-31T16:45:47;14.43;;;8.88;;
61015;SDS011;46902;52.920;6.536;2022-10-31T16:48:16;16.90;;;10.00;;
61015;SDS011;46902;52.920;6.536;2022-10-31T16:50:46;19.75;;;10.45;;
61015;SDS011;46902;52.920;6.536;2022-10-31T16:53:13;15.45;;;11.13;;
61015;SDS011;46902;52.920;6.536;2022-10-31T16:55:44;21.02;;;11.70;;
61015;SDS011;46902;52.920;6.536;2022-10-31T16:58:21;19.58;;;12.02;;
61015;SDS011;46902;52.920;6.536;2022-10-31T17:00:49;15.55;;;11.82;;
61015;SDS011;46902;52.920;6.536;2022-10-31T17:03:16;17.80;;;11.88;;
61015;SDS011;46902;52.920;6.536;2022-10-31T17:05:42;17.77;;;12.93;;